Time;durP1;ratioP1;P1;durP2;ratioP2;P2;SDS_P1;SDS_P2;PMS_P1;PMS_P2;Temp;Humidity;BMP_temperature;BMP_pressure;BME280_temperature;BME280_humidity;BME280_pressure;Samples;Min_cycle;Max_cycle;Signal;HPM_P1;HPM_P2
2023/06/27 00:01:00;;;;;;;13.48;7.72;;;;;;;18.79;52.26;98772.22;4956469;28;20049;-66
2023/06/27 00:03:25;;;;;;;16.15;6.95;;;;;;;18.77;52.53;98764.28;4956477;28;20145;-65
2023/06/27 00:05:51;;;;;;;11.60;7.55;;;;;;;18.77;52.47;98771.53;4954551;28;20073;-65
2023/06/27 00:08:16;;;;;;;12.02;7.22;;;;;;;18.76;52.50;98769.88;4955920;28;20042;-65
2023/06/27 00:10:41;;;;;;;13.13;6.72;;;;;;;18.76;52.25;98761.75;4954388;28;20505;-66
2023/06/27 00:13:16;;;;;;;10.20;6.50;;;;;;;18.72;52.63;98765.88;4971165;28;20050;-64
2023/06/27 00:15:41;;;;;;;15.82;7.15;;;;;;;18.74;52.34;98761.09;4955695;28;20042;-64
2023/06/27 00:18:08;;;;;;;15.43;7.10;;;;;;;18.73;52.17;98756.75;4955765;28;20064;-65
2023/06/27 00:20:34;;;;;;;9.68;7.18;;;;;;;18.72;52.28;98764.00;4954970;28;20049;-67
2023/06/27 00:23:16;;;;;;;11.15;6.93;;;;;;;18.75;52.54;98765.47;4955889;28;20072;-66
2023/06/27 00:25:41;;;;;;;15.43;7.93;;;;;;;18.68;52.74;98757.28;4956091;28;20054;-65
2023/06/27 00:28:06;;;;;;;11.45;7.50;;;;;;;18.68;52.70;98757.28;4956160;28;20050;-66
2023/06/27 00:30:32;;;;;;;10.38;7.53;;;;;;;18.67;52.47;98766.41;4956051;28;20512;-67
2023/06/27 00:32:58;;;;;;;11.82;8.07;;;;;;;18.68;52.49;98753.75;4953829;28;20057;-67
2023/06/27 00:35:24;;;;;;;11.13;7.47;;;;;;;18.62;52.85;98757.19;4956034;28;20072;-65
2023/06/27 00:37:49;;;;;;;14.82;7.38;;;;;;;18.60;52.59;98751.13;4956015;28;20034;-67
2023/06/27 00:40:14;;;;;;;12.98;8.15;;;;;;;18.60;52.60;98751.13;4953731;28;20049;-67
2023/06/27 00:42:39;;;;;;;11.88;7.40;;;;;;;18.60;52.46;98749.28;4955834;28;20052;-65
2023/06/27 00:45:07;;;;;;;13.52;8.27;;;;;;;18.57;52.78;98752.28;4954739;28;20058;-66
2023/06/27 00:47:33;;;;;;;13.40;8.50;;;;;;;18.58;52.58;98740.50;4954663;28;20049;-68
2023/06/27 00:49:59;;;;;;;12.38;8.25;;;;;;;18.59;52.36;98747.59;4954388;28;20046;-65
2023/06/27 00:52:24;;;;;;;14.07;7.85;;;;;;;18.59;52.25;98747.59;4954026;28;20095;-65
2023/06/27 00:54:50;;;;;;;15.93;8.52;;;;;;;18.59;52.29;98749.44;4955605;28;20053;-64
2023/06/27 00:57:15;;;;;;;15.18;7.65;;;;;;;18.58;52.44;98742.38;4954497;28;20416;-65
2023/06/27 00:59:43;;;;;;;23.20;7.90;;;;;;;18.55;52.47;98743.53;4955311;28;20400;-67
2023/06/27 01:02:08;;;;;;;11.57;7.40;;;;;;;18.50;52.33;98744.09;4954190;28;20042;-65
2023/06/27 01:04:34;;;;;;;15.68;7.97;;;;;;;18.49;52.27;98745.13;4955355;28;20046;-65
2023/06/27 01:07:09;;;;;;;12.93;8.30;;;;;;;18.49;52.32;98738.88;4970794;28;20053;-66
2023/06/27 01:09:37;;;;;;;;;;;;;;;18.59;51.73;98744.91;4971008;28;20050;-65
2023/06/27 01:12:27;;;;;;;11.75;8.00;;;;;;;18.50;52.46;98743.25;4952236;28;20013;-65
2023/06/27 01:14:56;;;;;;;14.50;8.52;;;;;;;18.45;52.83;98749.19;4945730;28;20501;-65
2023/06/27 01:17:24;;;;;;;10.95;7.20;;;;;;;18.56;52.25;98739.81;4954259;28;20437;-64
2023/06/27 01:19:52;;;;;;;12.43;8.13;;;;;;;18.49;52.23;98737.03;4953375;28;20823;-64
2023/06/27 01:22:29;;;;;;;12.35;7.63;;;;;;;18.43;52.77;98742.28;4955173;28;20050;-65
2023/06/27 01:24:55;;;;;;;8.68;6.90;;;;;;;18.39;52.76;98741.00;4953417;28;20061;-65
2023/06/27 01:27:20;;;;;;;15.80;7.88;;;;;;;18.35;52.92;98734.25;4954099;28;20049;-66
2023/06/27 01:29:46;;;;;;;10.85;7.32;;;;;;;18.33;53.02;98739.84;4958245;28;20054;-68
2023/06/27 01:32:24;;;;;;;13.20;7.97;;;;;;;18.38;52.91;98742.84;4957595;28;20061;-68
2023/06/27 01:35:04;;;;;;;14.73;8.82;;;;;;;18.34;53.06;98740.69;4959191;28;20046;-68
2023/06/27 01:37:38;;;;;;;11.18;7.80;;;;;;;18.33;53.14;98736.31;4962009;28;20069;-68
2023/06/27 01:40:10;;;;;;;11.63;8.07;;;;;;;18.38;53.32;98737.44;4943473;28;20417;-66
2023/06/27 01:42:49;;;;;;;12.68;8.73;;;;;;;18.42;53.12;98741.44;4959147;28;20042;-66
2023/06/27 01:45:17;;;;;;;12.15;8.63;;;;;;;18.31;53.46;98736.47;4957436;28;20074;-65
2023/06/27 01:47:43;;;;;;;13.73;8.82;;;;;;;18.33;53.45;98733.59;4958715;28;20042;-65
2023/06/27 01:50:11;;;;;;;18.20;8.88;;;;;;;18.26;53.47;98728.09;4957733;28;20034;-66
2023/06/27 01:52:38;;;;;;;17.75;11.70;;;;;;;18.23;53.87;98733.00;4941693;28;20058;-66
2023/06/27 01:55:04;;;;;;;21.40;9.65;;;;;;;18.20;54.22;98734.19;4974067;28;20047;-65
2023/06/27 01:57:32;;;;;;;14.57;8.57;;;;;;;18.22;53.89;98734.03;4959046;28;20246;-64
2023/06/27 01:59:58;;;;;;;16.55;9.43;;;;;;;18.22;54.25;98734.88;4957584;28;20050;-65
2023/06/27 02:02:23;;;;;;;15.90;9.02;;;;;;;18.22;54.32;98739.41;4958748;28;20417;-65
2023/06/27 02:04:49;;;;;;;14.60;9.00;;;;;;;18.25;53.88;98736.38;4958690;28;20061;-67
2023/06/27 02:07:15;;;;;;;15.93;9.02;;;;;;;18.29;54.09;98738.50;4953478;28;20501;-66
2023/06/27 02:09:41;;;;;;;14.02;9.57;;;;;;;18.36;53.96;98744.88;4958208;28;20505;-67
2023/06/27 02:12:09;;;;;;;14.65;9.20;;;;;;;18.39;53.81;98736.44;4958853;28;20050;-67
2023/06/27 02:14:34;;;;;;;15.15;9.40;;;;;;;18.45;54.11;98742.94;4957603;28;20034;-67
2023/06/27 02:17:00;;;;;;;15.18;8.80;;;;;;;18.51;54.13;98744.91;4957370;28;20050;-67
2023/06/27 02:19:25;;;;;;;17.52;9.95;;;;;;;18.59;53.95;98741.34;4941245;28;20053;-67
2023/06/27 02:21:51;;;;;;;12.63;8.93;;;;;;;18.63;53.45;98731.84;4958591;28;20046;-69
2023/06/27 02:24:17;;;;;;;16.05;8.68;;;;;;;18.68;53.65;98735.69;4958584;28;20057;-67
2023/06/27 02:26:43;;;;;;;17.08;9.23;;;;;;;18.72;53.71;98736.19;4956997;28;20821;-66
2023/06/27 02:29:09;;;;;;;23.00;8.80;;;;;;;18.74;53.61;98745.75;4958139;28;20493;-67
2023/06/27 02:31:36;;;;;;;17.35;9.65;;;;;;;18.77;53.58;98737.28;4976027;28;20045;-66
2023/06/27 02:34:01;;;;;;;14.88;8.80;;;;;;;18.77;53.73;98739.16;4972647;28;20050;-69
2023/06/27 02:36:27;;;;;;;18.88;9.70;;;;;;;18.75;53.71;98741.19;4957420;28;20053;-65
2023/06/27 02:38:55;;;;;;;14.32;8.98;;;;;;;18.71;54.21;98743.44;4971641;28;20038;-64
2023/06/27 02:41:24;;;;;;;16.38;9.63;;;;;;;18.72;54.37;98744.28;4957642;28;20045;-67
2023/06/27 02:43:50;;;;;;;12.00;8.60;;;;;;;18.70;54.17;98743.63;4951836;28;20047;-66
2023/06/27 02:46:15;;;;;;;14.30;9.07;;;;;;;18.72;53.83;98744.28;4972898;28;20046;-66
2023/06/27 02:48:40;;;;;;;12.80;8.98;;;;;;;18.71;53.95;98748.00;4957559;28;20046;-71
2023/06/27 02:51:06;;;;;;;15.05;9.55;;;;;;;18.71;53.95;98748.00;4955716;28;20046;-68
2023/06/27 02:53:31;;;;;;;17.58;9.80;;;;;;;18.68;54.16;98740.25;4956682;28;20047;-67
2023/06/27 02:56:02;;;;;;;13.38;8.60;;;;;;;18.69;54.08;98731.13;4943845;28;20042;-65
2023/06/27 02:58:30;;;;;;;14.45;8.77;;;;;;;18.71;54.46;98734.50;4973122;28;20065;-67
2023/06/27 03:00:56;;;;;;;13.35;8.57;;;;;;;18.71;54.29;98731.78;4964849;28;20053;-69
2023/06/27 03:03:21;;;;;;;14.77;9.07;;;;;;;18.73;54.33;98732.44;4957348;28;20053;-67
2023/06/27 03:05:47;;;;;;;15.13;8.95;;;;;;;18.74;54.48;98734.09;4955850;28;20046;-67
2023/06/27 03:08:12;;;;;;;13.50;8.18;;;;;;;18.73;54.33;98735.16;4955682;28;20424;-69
2023/06/27 03:10:37;;;;;;;13.50;9.05;;;;;;;18.77;54.24;98734.59;4956156;28;20413;-69
2023/06/27 03:13:02;;;;;;;14.68;9.40;;;;;;;18.78;54.34;98730.03;4956155;28;20068;-67
2023/06/27 03:15:28;;;;;;;12.13;8.77;;;;;;;18.80;54.57;98727.97;4956450;28;20046;-68
2023/06/27 03:17:54;;;;;;;16.45;9.20;;;;;;;18.82;54.38;98721.38;4956426;28;20057;-69
2023/06/27 03:20:20;;;;;;;17.20;8.75;;;;;;;18.85;54.32;98728.25;4957118;28;20041;-69
2023/06/27 03:22:46;;;;;;;15.38;8.65;;;;;;;18.92;54.17;98731.06;4956524;28;20038;-68
2023/06/27 03:25:11;;;;;;;11.73;7.95;;;;;;;18.95;54.37;98734.25;4955866;28;20066;-69
2023/06/27 03:27:37;;;;;;;14.15;7.90;;;;;;;19.01;54.04;98733.50;4957389;28;20409;-68
2023/06/27 03:30:04;;;;;;;13.45;8.10;;;;;;;19.07;53.87;98735.47;4957143;28;20064;-69
2023/06/27 03:32:31;;;;;;;14.27;8.60;;;;;;;19.14;53.47;98725.59;4956030;28;20053;-68
2023/06/27 03:34:57;;;;;;;15.50;8.45;;;;;;;19.16;53.20;98728.09;4957150;28;20034;-70
2023/06/27 03:37:22;;;;;;;17.80;9.10;;;;;;;19.16;53.16;98723.53;4955826;28;20061;-68
2023/06/27 03:39:47;;;;;;;15.50;9.25;;;;;;;19.23;53.24;98721.75;4939448;28;20046;-70
2023/06/27 03:42:15;;;;;;;11.32;9.02;;;;;;;19.42;53.36;98723.03;4955692;28;20049;-70
2023/06/27 03:44:40;;;;;;;14.85;9.07;;;;;;;19.67;52.68;98718.19;4956910;28;20046;-69
2023/06/27 03:47:06;;;;;;;16.63;10.35;;;;;;;19.92;52.14;98718.69;4943032;28;20416;-68
2023/06/27 03:49:31;;;;;;;12.13;8.43;;;;;;;20.10;51.68;98720.94;4991463;28;20049;-68
2023/06/27 03:51:57;;;;;;;15.82;8.70;;;;;;;20.22;51.32;98714.81;4957391;28;20061;-67
2023/06/27 03:54:22;;;;;;;12.63;8.95;;;;;;;20.35;51.33;98724.97;4991347;28;20042;-67
2023/06/27 03:56:48;;;;;;;13.23;8.35;;;;;;;20.44;50.48;98720.25;4975088;28;20072;-67
2023/06/27 03:59:13;;;;;;;10.18;7.13;;;;;;;20.46;50.32;98724.44;4981067;28;20042;-68
2023/06/27 04:01:41;;;;;;;9.60;7.53;;;;;;;20.35;50.21;98716.84;4956779;28;20042;-65
2023/06/27 04:04:10;;;;;;;10.00;7.65;;;;;;;20.28;50.67;98726.75;4955412;28;20049;-66
2023/06/27 04:06:35;;;;;;;14.55;8.70;;;;;;;20.27;50.59;98719.66;4956491;28;20042;-66
2023/06/27 04:09:02;;;;;;;11.23;7.85;;;;;;;20.24;50.45;98718.19;4956490;28;20053;-65
2023/06/27 04:11:27;;;;;;;12.63;7.82;;;;;;;20.26;50.50;98723.41;4955173;28;20438;-66
2023/06/27 04:13:56;;;;;;;10.15;7.78;;;;;;;20.20;50.22;98726.91;4955436;28;20077;-66
2023/06/27 04:16:22;;;;;;;17.85;8.55;;;;;;;19.97;50.68;98718.13;4955012;28;20073;-66
2023/06/27 04:18:48;;;;;;;14.35;7.93;;;;;;;19.89;50.99;98719.91;4955329;28;20050;-67
2023/06/27 04:21:13;;;;;;;10.27;7.63;;;;;;;19.86;51.23;98714.06;4971611;28;20508;-68
2023/06/27 04:23:38;;;;;;;13.10;7.68;;;;;;;19.88;51.40;98715.50;4971544;28;20054;-67
2023/06/27 04:26:07;;;;;;;13.55;7.95;;;;;;;19.98;51.36;98717.09;4954460;28;20050;-67
2023/06/27 04:28:34;;;;;;;11.00;7.63;;;;;;;20.22;51.30;98713.97;4955168;28;20050;-66
2023/06/27 04:31:01;;;;;;;13.77;8.80;;;;;;;20.49;50.66;98706.97;4954301;28;20457;-66
2023/06/27 04:33:27;;;;;;;11.52;7.68;;;;;;;20.80;50.11;98712.00;4956073;28;20046;-67
2023/06/27 04:35:54;;;;;;;12.20;8.65;;;;;;;20.90;49.61;98718.75;4956040;28;20038;-67
2023/06/27 04:38:20;;;;;;;12.27;8.52;;;;;;;20.88;49.72;98714.59;4953927;28;20054;-67
2023/06/27 04:40:45;;;;;;;15.02;9.25;;;;;;;20.77;49.76;98720.56;4955924;28;20050;-66
2023/06/27 04:43:11;;;;;;;16.15;9.27;;;;;;;20.81;49.86;98714.53;4970765;28;20046;-67
2023/06/27 04:45:36;;;;;;;16.25;9.05;;;;;;;21.05;49.59;98715.94;4955998;28;20053;-67
2023/06/27 04:48:01;;;;;;;36.70;9.60;;;;;;;21.37;48.93;98718.03;4955770;28;20053;-67
2023/06/27 04:50:26;;;;;;;13.25;8.20;;;;;;;21.74;47.86;98713.19;4955772;28;20053;-68
2023/06/27 04:52:52;;;;;;;14.65;9.63;;;;;;;22.14;47.33;98719.56;4955728;28;20038;-67
2023/06/27 04:55:17;;;;;;;16.52;9.48;;;;;;;22.25;47.01;98704.53;4955491;28;20057;-65
2023/06/27 04:57:42;;;;;;;16.67;9.07;;;;;;;22.13;46.79;98708.91;4955898;28;20038;-66
2023/06/27 05:00:12;;;;;;;14.35;9.18;;;;;;;22.00;47.35;98721.44;4955709;28;20046;-67
2023/06/27 05:02:37;;;;;;;22.23;12.18;;;;;;;21.84;46.89;98716.34;4955670;28;20038;-67
2023/06/27 05:05:04;;;;;;;14.65;10.10;;;;;;;22.00;47.18;98712.47;4955661;28;20049;-67
2023/06/27 05:07:30;;;;;;;15.35;9.82;;;;;;;22.33;45.84;98709.81;4954600;28;20050;-65
2023/06/27 05:09:55;;;;;;;14.43;9.32;;;;;;;22.58;46.09;98708.13;4955304;28;20046;-65
2023/06/27 05:12:21;;;;;;;15.45;10.15;;;;;;;22.63;45.65;98707.50;4954025;28;20042;-67
2023/06/27 05:14:46;;;;;;;17.23;10.50;;;;;;;22.38;45.42;98708.13;4955503;28;20417;-67
2023/06/27 05:17:11;;;;;;;14.23;9.07;;;;;;;22.38;46.39;98712.72;4970405;28;20053;-67
2023/06/27 05:19:36;;;;;;;13.38;8.88;;;;;;;22.75;45.69;98706.69;4955263;28;20058;-67
2023/06/27 05:22:02;;;;;;;14.18;9.25;;;;;;;23.15;45.10;98717.50;4954968;28;20126;-67
2023/06/27 05:24:27;;;;;;;12.68;9.60;;;;;;;23.22;44.74;98718.34;4955039;28;20055;-67
2023/06/27 05:26:52;;;;;;;16.13;8.95;;;;;;;23.16;45.03;98721.88;4955412;28;20057;-68
2023/06/27 05:29:17;;;;;;;16.52;8.45;;;;;;;23.05;44.82;98719.81;4954710;28;20481;-68
2023/06/27 05:31:43;;;;;;;14.55;8.98;;;;;;;22.87;44.63;98733.22;4955303;28;20046;-67
2023/06/27 05:34:08;;;;;;;15.05;9.25;;;;;;;22.43;45.15;98718.38;4953151;28;20062;-68
2023/06/27 05:36:34;;;;;;;12.48;8.68;;;;;;;22.34;45.37;98719.63;4955328;28;20046;-68
2023/06/27 05:38:59;;;;;;;13.23;8.52;;;;;;;22.43;45.82;98723.81;4955075;28;20485;-67
2023/06/27 05:41:24;;;;;;;12.18;8.68;;;;;;;22.52;45.69;98719.00;4955178;28;20055;-68
2023/06/27 05:43:49;;;;;;;11.35;6.90;;;;;;;22.78;45.91;98722.59;4955479;28;20919;-68
2023/06/27 05:46:15;;;;;;;14.60;8.80;;;;;;;23.11;44.23;98719.81;4953657;28;20050;-68
2023/06/27 05:48:40;;;;;;;14.05;7.60;;;;;;;23.63;43.86;98714.44;4955243;28;20054;-67
2023/06/27 05:51:07;;;;;;;10.32;7.57;;;;;;;24.12;42.36;98716.50;4954078;28;20042;-68
2023/06/27 05:53:33;;;;;;;11.68;6.88;;;;;;;24.90;40.80;98706.91;4953541;28;20061;-68
2023/06/27 05:55:58;;;;;;;10.40;7.28;;;;;;;25.62;39.79;98707.25;4955082;28;20061;-68
2023/06/27 05:58:23;;;;;;;11.57;6.47;;;;;;;26.39;39.09;98698.19;4954021;28;20057;-67
2023/06/27 06:00:48;;;;;;;10.63;7.72;;;;;;;26.72;37.80;98702.28;4954782;28;20401;-67
2023/06/27 06:03:14;;;;;;;14.60;6.97;;;;;;;26.73;37.33;98701.22;4954629;28;20065;-68
2023/06/27 06:05:39;;;;;;;12.32;6.22;;;;;;;26.30;38.22;98693.28;4954978;28;20039;-68
2023/06/27 06:08:04;;;;;;;11.40;7.13;;;;;;;25.79;38.56;98699.25;4954976;28;20543;-68
2023/06/27 06:10:30;;;;;;;8.45;6.13;;;;;;;25.56;38.73;98703.50;4953537;28;20054;-67
2023/06/27 06:12:55;;;;;;;8.02;5.25;;;;;;;25.66;37.65;98708.44;4955088;28;20242;-67
2023/06/27 06:15:20;;;;;;;9.10;5.95;;;;;;;25.89;37.37;98689.44;4956009;28;20042;-69
2023/06/27 06:17:45;;;;;;;10.30;5.80;;;;;;;26.49;36.43;98692.16;4958634;28;20519;-67
2023/06/27 06:20:11;;;;;;;9.20;5.68;;;;;;;27.07;35.50;98694.94;4958611;28;20038;-67
2023/06/27 06:22:37;;;;;;;8.88;5.18;;;;;;;26.86;35.01;98692.78;4958435;28;20477;-68
2023/06/27 06:25:03;;;;;;;9.38;5.55;;;;;;;27.36;34.94;98692.28;4958057;28;20050;-69
2023/06/27 06:27:32;;;;;;;6.28;5.05;;;;;;;27.74;33.99;98689.03;4958447;28;20046;-68
2023/06/27 06:29:57;;;;;;;7.85;5.45;;;;;;;28.17;33.13;98693.94;4956265;28;20057;-69
2023/06/27 06:32:23;;;;;;;8.52;5.40;;;;;;;28.26;32.57;98700.72;4956525;28;20065;-69
2023/06/27 06:34:48;;;;;;;6.60;5.20;;;;;;;27.86;32.65;98688.97;4958076;28;20042;-69
2023/06/27 06:37:14;;;;;;;7.78;5.55;;;;;;;27.95;33.33;98696.56;4958255;28;20046;-68
2023/06/27 06:39:39;;;;;;;7.53;5.18;;;;;;;28.09;32.34;98689.72;4956958;28;20037;-68
2023/06/27 06:42:05;;;;;;;10.63;5.72;;;;;;;28.29;32.15;98697.50;4958100;28;20042;-68
2023/06/27 06:44:30;;;;;;;6.72;4.70;;;;;;;28.43;32.48;98687.88;4957942;28;20397;-68
2023/06/27 06:46:55;;;;;;;6.60;5.32;;;;;;;28.98;31.60;98695.38;4957877;28;20409;-68
2023/06/27 06:49:20;;;;;;;9.82;5.40;;;;;;;28.69;31.03;98688.28;4958094;28;20042;-67
2023/06/27 06:51:46;;;;;;;7.80;5.85;;;;;;;28.46;31.58;98670.91;4955544;28;20528;-68
2023/06/27 06:54:11;;;;;;;6.60;5.05;;;;;;;28.49;31.89;98692.38;4956713;28;20777;-67
2023/06/27 06:56:36;;;;;;;11.30;5.30;;;;;;;27.77;32.47;98689.34;4957846;28;20049;-67
2023/06/27 06:59:02;;;;;;;6.93;4.57;;;;;;;27.59;32.51;98692.28;4956502;28;20049;-68
2023/06/27 07:01:28;;;;;;;9.23;5.50;;;;;;;27.67;32.61;98691.88;4957654;28;20050;-68
2023/06/27 07:03:54;;;;;;;7.53;5.72;;;;;;;27.72;32.92;98692.00;4956526;28;20037;-66
2023/06/27 07:06:19;;;;;;;11.10;5.95;;;;;;;27.33;32.87;98690.84;4957562;28;20531;-69
2023/06/27 07:08:44;;;;;;;6.35;4.78;;;;;;;26.66;34.07;98686.81;4957084;28;20034;-68
2023/06/27 07:11:09;;;;;;;8.18;4.55;;;;;;;25.77;36.29;98693.19;4957424;28;20046;-67
2023/06/27 07:13:34;;;;;;;11.98;6.80;;;;;;;25.28;36.44;98690.38;4956394;28;20042;-70
2023/06/27 07:16:00;;;;;;;7.45;5.43;;;;;;;24.93;36.28;98686.59;4955970;28;20390;-69
2023/06/27 07:18:25;;;;;;;7.22;5.80;;;;;;;24.56;37.60;98691.91;4957112;28;20045;-66
2023/06/27 07:20:50;;;;;;;10.68;5.28;;;;;;;24.46;36.91;98688.00;4956197;28;20061;-67
2023/06/27 07:23:16;;;;;;;8.25;5.43;;;;;;;24.19;37.87;98695.50;4957279;28;20042;-66
2023/06/27 07:25:41;;;;;;;8.27;5.45;;;;;;;24.03;38.77;98694.16;4955347;28;20050;-67
2023/06/27 07:28:06;;;;;;;8.57;5.05;;;;;;;24.17;38.50;98694.88;4957185;28;20054;-67
2023/06/27 07:30:31;;;;;;;7.00;4.93;;;;;;;24.51;38.51;98694.44;4957317;28;20050;-68
2023/06/27 07:32:57;;;;;;;7.57;5.18;;;;;;;25.03;37.00;98694.25;4957046;28;20819;-68
2023/06/27 07:35:22;;;;;;;8.55;5.47;;;;;;;25.49;36.04;98699.19;4955498;28;20065;-67
2023/06/27 07:37:47;;;;;;;7.57;4.60;;;;;;;25.77;34.36;98693.19;4957060;28;20046;-66
2023/06/27 07:40:13;;;;;;;6.63;4.70;;;;;;;25.37;34.21;98701.84;4971801;28;20053;-67
2023/06/27 07:42:38;;;;;;;7.22;4.78;;;;;;;24.72;35.35;98701.41;4955568;28;20053;-68
2023/06/27 07:45:05;;;;;;;8.23;5.38;;;;;;;24.47;35.24;98685.06;4956905;28;20064;-69
2023/06/27 07:47:31;;;;;;;7.75;5.32;;;;;;;24.53;35.90;98678.72;4956846;28;20042;-68
2023/06/27 07:49:57;;;;;;;18.92;6.03;;;;;;;25.00;34.32;98691.97;4955603;28;20390;-68
2023/06/27 07:52:22;;;;;;;8.32;5.63;;;;;;;25.72;34.05;98677.50;4956701;28;20053;-68
2023/06/27 07:54:47;;;;;;;10.07;5.00;;;;;;;27.58;32.13;98671.44;4955452;28;20050;-69
2023/06/27 07:57:12;;;;;;;6.28;5.18;;;;;;;29.37;30.04;98670.66;4956882;28;20042;-68
2023/06/27 07:59:37;;;;;;;7.68;5.05;;;;;;;30.84;28.93;98666.75;4954966;28;20058;-68
2023/06/27 08:02:03;;;;;;;7.47;5.28;;;;;;;31.01;26.35;98676.50;4954508;28;20046;-68
2023/06/27 08:04:28;;;;;;;6.30;4.97;;;;;;;30.71;26.04;98669.94;4956601;28;20504;-68
2023/06/27 08:06:53;;;;;;;7.95;5.00;;;;;;;30.70;26.85;98660.06;4956556;28;20041;-68
2023/06/27 08:09:20;;;;;;;8.80;5.18;;;;;;;30.42;27.29;98663.91;4956422;28;20057;-67
2023/06/27 08:11:45;;;;;;;8.60;5.78;;;;;;;29.89;27.66;98732.34;4956390;28;20060;-67
2023/06/27 08:14:11;;;;;;;9.93;5.90;;;;;;;28.86;27.53;98714.69;4956332;28;20050;-66
2023/06/27 08:16:36;;;;;;;6.38;5.35;;;;;;;27.94;28.86;98732.41;4956186;28;20523;-68
2023/06/27 08:19:01;;;;;;;6.70;4.97;;;;;;;27.96;29.37;98733.84;4955073;28;20067;-68
2023/06/27 08:21:27;;;;;;;8.73;5.43;;;;;;;28.11;28.30;98683.97;4956165;28;20042;-67
2023/06/27 08:23:52;;;;;;;14.13;5.00;;;;;;;27.78;29.17;98732.09;4956677;28;20058;-67
2023/06/27 08:26:18;;;;;;;7.18;5.47;;;;;;;27.48;29.29;98751.44;4956122;28;20062;-67
2023/06/27 08:28:44;;;;;;;11.20;5.90;;;;;;;27.21;30.10;98717.41;4971355;28;20512;-69
2023/06/27 08:31:13;;;;;;;8.60;5.20;;;;;;;26.90;30.44;98742.34;4956411;28;20053;-69
2023/06/27 08:33:39;;;;;;;6.40;5.18;;;;;;;26.67;30.87;98721.28;4956103;28;20409;-70
2023/06/27 08:36:08;;;;;;;9.23;5.10;;;;;;;26.50;30.82;98723.06;4956059;28;20057;-69
2023/06/27 08:38:34;;;;;;;8.02;5.30;;;;;;;26.56;31.33;98708.44;4955616;28;20054;-69
2023/06/27 08:41:01;;;;;;;7.75;5.43;;;;;;;26.65;29.64;98713.31;4955976;28;20053;-70
2023/06/27 08:43:27;;;;;;;7.78;5.47;;;;;;;27.06;29.81;98704.22;4956078;28;20049;-69
2023/06/27 08:45:54;;;;;;;5.60;4.68;;;;;;;27.74;28.98;98654.25;4954685;28;20509;-69
2023/06/27 08:48:20;;;;;;;7.75;4.68;;;;;;;28.16;27.96;98662.13;4955857;28;20370;-69
2023/06/27 08:50:50;;;;;;;6.60;4.50;;;;;;;27.97;26.97;98647.84;4955975;28;20408;-67
2023/06/27 08:53:17;;;;;;;6.95;4.97;;;;;;;27.86;27.61;98653.38;4953709;28;20050;-68
2023/06/27 08:55:58;;;;;;;6.55;5.00;;;;;;;28.18;27.57;98641.66;4955992;28;20053;-67
2023/06/27 08:58:27;;;;;;;6.30;4.88;;;;;;;27.85;26.92;98647.06;4953986;28;20054;-68
2023/06/27 09:00:54;;;;;;;5.70;5.10;;;;;;;27.98;27.04;98640.44;4954748;28;20053;-66
2023/06/27 09:03:20;;;;;;;6.90;4.88;;;;;;;28.45;26.81;98628.13;4955991;28;20038;-67
2023/06/27 09:05:47;;;;;;;6.70;4.95;;;;;;;28.72;26.96;98621.97;4955825;28;20050;-67
2023/06/27 09:08:13;;;;;;;11.27;5.97;;;;;;;29.06;26.80;98631.81;4954760;28;20049;-67
2023/06/27 09:10:38;;;;;;;8.02;5.53;;;;;;;29.69;26.00;98627.69;4953653;28;20061;-68
2023/06/27 09:13:04;;;;;;;7.75;5.90;;;;;;;29.65;26.24;98626.56;4955664;28;20069;-68
2023/06/27 09:15:29;;;;;;;8.32;5.40;;;;;;;29.49;26.39;98635.69;4955741;28;20054;-69
2023/06/27 09:17:55;;;;;;;9.27;5.50;;;;;;;29.26;27.39;98631.25;4955494;28;20050;-67
2023/06/27 09:20:20;;;;;;;9.45;6.05;;;;;;;28.92;27.22;98629.69;4970811;28;20519;-68
2023/06/27 09:22:45;;;;;;;7.50;6.03;;;;;;;28.36;27.61;98681.72;4953588;28;20054;-68
2023/06/27 09:25:15;;;;;;;8.07;5.10;;;;;;;28.06;28.20;98640.03;4955070;28;20050;-67
2023/06/27 09:27:42;;;;;;;6.50;5.03;;;;;;;27.98;27.94;98633.06;4955455;28;20054;-68
2023/06/27 09:30:09;;;;;;;9.57;5.28;;;;;;;28.15;27.84;98635.81;4955480;28;20042;-67
2023/06/27 09:32:52;;;;;;;9.27;5.13;;;;;;;29.00;27.13;98632.84;4955385;28;20050;-67
2023/06/27 09:35:18;;;;;;;10.73;5.22;;;;;;;28.58;26.66;98623.38;4955495;28;20547;-70
2023/06/27 09:37:43;;;;;;;8.85;5.40;;;;;;;28.34;27.98;98628.19;4955548;28;20051;-70
2023/06/27 09:40:24;;;;;;;9.40;5.50;;;;;;;28.52;26.85;98636.19;4955430;28;20057;-69
2023/06/27 09:42:54;;;;;;;5.90;5.05;;;;;;;28.99;26.70;98633.09;4955304;28;20049;-68
2023/06/27 09:45:20;;;;;;;7.28;4.60;;;;;;;29.57;25.94;98638.00;4970746;28;20038;-67
2023/06/27 09:47:52;;;;;;;7.13;4.70;;;;;;;29.90;25.99;98635.09;4953848;28;20054;-68
2023/06/27 09:50:24;;;;;;;9.23;5.05;;;;;;;29.99;25.90;98629.16;4957604;28;20382;-68
2023/06/27 09:52:51;;;;;;;8.50;5.88;;;;;;;29.47;25.57;98624.97;4959048;28;20050;-69
2023/06/27 09:55:20;;;;;;;7.45;4.80;;;;;;;29.02;26.83;98625.16;4957279;28;20066;-68
2023/06/27 09:57:47;;;;;;;6.90;5.43;;;;;;;28.85;27.21;98625.22;4973950;28;20417;-66
2023/06/27 10:00:16;;;;;;;7.53;5.05;;;;;;;28.94;26.57;98617.38;4958849;28;20053;-66
2023/06/27 10:02:42;;;;;;;7.18;5.15;;;;;;;29.09;26.92;98625.84;4982584;28;20045;-66
2023/06/27 10:05:07;;;;;;;10.40;6.47;;;;;;;28.89;26.43;98620.06;4965074;28;20038;-66
2023/06/27 10:07:34;;;;;;;6.63;5.47;;;;;;;28.14;27.41;98618.53;4958470;28;20046;-67
2023/06/27 10:09:59;;;;;;;5.90;5.30;;;;;;;27.52;28.30;98628.59;4973454;28;20034;-68
2023/06/27 10:12:25;;;;;;;6.82;5.38;;;;;;;26.88;28.35;98614.03;4958140;28;20062;-68
2023/06/27 10:14:50;;;;;;;8.20;5.75;;;;;;;26.38;28.98;98625.47;4973443;28;20046;-67
2023/06/27 10:17:18;;;;;;;6.15;5.18;;;;;;;25.60;30.50;98611.06;4956629;28;20061;-68
2023/06/27 10:19:44;;;;;;;8.00;5.15;;;;;;;25.43;31.06;98619.03;4958035;28;20049;-68
2023/06/27 10:22:14;;;;;;;8.50;5.47;;;;;;;25.40;31.02;98615.94;4956376;28;20524;-69
2023/06/27 10:24:41;;;;;;;5.78;4.68;;;;;;;25.48;31.21;98621.09;4958087;28;20054;-68
2023/06/27 10:27:12;;;;;;;9.15;5.82;;;;;;;25.38;31.62;98618.09;4973019;28;20046;-67
2023/06/27 10:29:41;;;;;;;7.97;5.20;;;;;;;25.37;31.23;98622.72;4957689;28;20425;-67
2023/06/27 10:32:10;;;;;;;6.20;4.63;;;;;;;25.10;31.95;98610.44;4957721;28;20516;-69
2023/06/27 10:34:40;;;;;;;7.93;4.75;;;;;;;25.05;32.38;98623.94;4972798;28;20420;-67
2023/06/27 10:37:10;;;;;;;7.47;5.22;;;;;;;24.84;32.95;98620.53;4957857;28;20130;-69
2023/06/27 10:39:36;;;;;;;6.20;5.22;;;;;;;24.74;32.97;98595.69;4958346;28;20046;-66
2023/06/27 10:42:18;;;;;;;7.68;5.43;;;;;;;24.66;33.04;98619.69;4957583;28;20789;-68
2023/06/27 10:45:10;;;;;;;7.25;5.22;;;;;;;24.67;32.57;98622.22;4957464;28;20049;-68
2023/06/27 10:47:43;;;;;;;6.70;5.07;;;;;;;24.23;33.42;98615.91;4955982;28;20054;-66
2023/06/27 10:50:13;;;;;;;9.68;5.15;;;;;;;24.14;33.60;98609.03;4956164;28;20046;-66
2023/06/27 10:52:40;;;;;;;8.25;4.53;;;;;;;24.09;34.07;98602.56;4957568;28;20053;-66
2023/06/27 10:55:15;;;;;;;6.63;5.22;;;;;;;24.22;33.70;98608.78;4956034;28;20065;-68
2023/06/27 10:58:10;;;;;;;7.00;5.28;;;;;;;24.30;33.75;98606.81;4972879;28;20050;-65
2023/06/27 11:00:41;;;;;;;8.20;5.47;;;;;;;24.46;33.80;98607.09;4954051;28;20431;-68
2023/06/27 11:03:09;;;;;;;7.32;4.82;;;;;;;24.63;34.24;98599.19;4957538;28;20057;-67
2023/06/27 11:05:57;;;;;;;6.57;5.45;;;;;;;24.89;33.41;98609.81;4972310;28;20054;-67
2023/06/27 11:08:27;;;;;;;11.60;7.53;;;;;;;24.90;33.82;98602.47;4964548;28;20060;-67
2023/06/27 11:10:58;;;;;;;7.75;5.63;;;;;;;25.05;34.02;98602.13;4975885;28;20042;-68
2023/06/27 11:13:24;;;;;;;6.43;4.47;;;;;;;25.29;32.58;98593.81;4975962;28;20428;-67
2023/06/27 11:15:51;;;;;;;7.85;5.00;;;;;;;25.28;31.88;98589.44;4975248;28;20057;-68
2023/06/27 11:18:18;;;;;;;9.30;4.88;;;;;;;25.18;31.83;98591.88;4976845;28;20048;-68
2023/06/27 11:20:45;;;;;;;7.30;4.70;;;;;;;25.19;32.44;98581.78;4962455;28;20062;-67
2023/06/27 11:23:12;;;;;;;6.90;5.43;;;;;;;25.43;33.16;98588.19;4962090;28;20061;-66
2023/06/27 11:25:42;;;;;;;6.03;5.32;;;;;;;25.74;32.04;98576.22;4976858;28;20050;-68
2023/06/27 11:28:10;;;;;;;6.20;4.40;;;;;;;26.07;31.30;98590.22;4976617;28;20465;-66